createdAt,value
2018-09-20T00:00:55.936Z,4.60
2018-09-20T00:03:24.674Z,4.30
2018-09-20T00:05:53.135Z,5.40
2018-09-20T00:08:21.575Z,5.20
2018-09-20T00:10:50.014Z,5.00
2018-09-20T00:13:18.425Z,5.70
2018-09-20T00:15:46.815Z,5.43
2018-09-20T00:18:15.239Z,5.70
2018-09-20T00:20:43.727Z,5.97
2018-09-20T00:23:12.102Z,5.50
2018-09-20T00:25:40.509Z,6.90
2018-09-20T00:28:08.918Z,7.00
2018-09-20T00:30:37.346Z,8.30
2018-09-20T00:33:05.833Z,10.17
2018-09-20T00:35:34.394Z,11.30
2018-09-20T00:38:02.785Z,11.33
2018-09-20T00:40:31.222Z,11.70
2018-09-20T00:42:59.660Z,11.70
2018-09-20T00:45:28.141Z,12.30
2018-09-20T00:47:56.590Z,12.40
2018-09-20T00:50:25.095Z,11.50
2018-09-20T00:52:53.515Z,11.20
2018-09-20T00:55:22.759Z,10.67
2018-09-20T00:57:51.209Z,10.53
2018-09-20T01:00:19.682Z,9.50
2018-09-20T01:02:48.069Z,9.83
2018-09-20T01:05:16.466Z,9.93
2018-09-20T01:07:44.898Z,9.47
2018-09-20T01:10:13.365Z,8.93
2018-09-20T01:12:41.772Z,9.20
2018-09-20T01:15:10.264Z,8.30
2018-09-20T01:17:38.680Z,8.63
2018-09-20T01:20:07.162Z,7.97
2018-09-20T01:22:35.618Z,8.40
2018-09-20T01:25:04.026Z,8.10
2018-09-20T01:27:32.488Z,8.17
2018-09-20T01:30:00.938Z,7.70
2018-09-20T01:32:29.354Z,7.33
2018-09-20T01:34:57.906Z,8.40
2018-09-20T01:37:26.442Z,8.37
2018-09-20T01:39:54.849Z,8.13
2018-09-20T01:42:23.298Z,7.63
2018-09-20T01:44:52.240Z,7.50
2018-09-20T01:47:20.613Z,7.43
2018-09-20T01:49:49.020Z,7.80
2018-09-20T01:52:17.434Z,8.23
2018-09-20T01:54:45.849Z,8.03
2018-09-20T01:57:14.371Z,8.10
2018-09-20T01:59:42.852Z,8.30
2018-09-20T02:02:11.247Z,8.80
2018-09-20T02:04:39.642Z,8.47
2018-09-20T02:07:08.140Z,8.33
2018-09-20T02:09:36.580Z,8.20
2018-09-20T02:12:05.051Z,9.47
2018-09-20T02:14:33.478Z,8.37
2018-09-20T02:17:01.894Z,8.63
2018-09-20T02:19:30.319Z,8.97
2018-09-20T02:21:58.731Z,8.60
2018-09-20T02:24:27.145Z,9.73
2018-09-20T02:26:55.585Z,8.43
2018-09-20T02:29:25.360Z,8.83
2018-09-20T02:31:53.799Z,8.50
2018-09-20T02:34:22.219Z,9.17
2018-09-20T02:36:50.910Z,9.40
2018-09-20T02:39:19.439Z,9.10
2018-09-20T02:41:48.001Z,9.03
2018-09-20T02:44:16.433Z,9.10
2018-09-20T02:46:44.876Z,8.77
2018-09-20T02:49:13.291Z,8.70
2018-09-20T02:51:41.675Z,9.03
2018-09-20T02:54:10.060Z,9.53
2018-09-20T02:56:38.459Z,9.83
2018-09-20T02:59:06.920Z,9.30
2018-09-20T03:01:35.333Z,9.37
2018-09-20T03:04:03.810Z,9.70
2018-09-20T03:06:32.192Z,9.57
2018-09-20T03:09:00.641Z,9.00
2018-09-20T03:11:29.036Z,9.63
2018-09-20T03:13:58.302Z,8.78
2018-09-20T03:16:26.754Z,9.10
2018-09-20T03:18:55.226Z,9.47
2018-09-20T03:21:23.754Z,8.87
2018-09-20T03:23:52.165Z,9.47
2018-09-20T03:26:20.667Z,9.17
2018-09-20T03:28:49.066Z,8.93
2018-09-20T03:31:17.473Z,9.00
2018-09-20T03:33:45.863Z,8.57
2018-09-20T03:36:14.303Z,9.97
2018-09-20T03:38:42.681Z,8.60
2018-09-20T03:41:11.118Z,8.67
2018-09-20T03:43:39.523Z,8.30
2018-09-20T03:46:07.927Z,8.13
2018-09-20T03:48:36.379Z,8.63
2018-09-20T03:51:04.825Z,8.20
2018-09-20T03:53:33.261Z,7.60
2018-09-20T03:56:01.678Z,7.80
2018-09-20T03:58:30.100Z,7.70
2018-09-20T04:00:58.521Z,7.53
2018-09-20T04:03:26.964Z,7.63
2018-09-20T04:05:55.387Z,7.77
2018-09-20T04:08:23.906Z,8.20
2018-09-20T04:10:52.379Z,7.27
2018-09-20T04:13:20.821Z,8.00
2018-09-20T04:15:49.275Z,7.43
2018-09-20T04:18:17.673Z,7.60
2018-09-20T04:20:46.123Z,7.57
2018-09-20T04:23:14.568Z,7.10
2018-09-20T04:25:43.010Z,7.57
2018-09-20T04:28:11.385Z,6.83
2018-09-20T04:30:39.761Z,7.60
2018-09-20T04:33:08.282Z,7.20
2018-09-20T04:35:36.704Z,7.63
2018-09-20T04:38:05.159Z,7.47
2018-09-20T04:40:34.200Z,7.40
2018-09-20T04:43:02.645Z,7.43
2018-09-20T04:45:31.061Z,7.80
2018-09-20T04:47:59.453Z,7.57
2018-09-20T04:50:27.890Z,8.00
2018-09-20T04:52:56.307Z,7.83
2018-09-20T04:55:24.709Z,7.73
2018-09-20T04:57:53.141Z,7.17
2018-09-20T05:00:21.581Z,7.57
2018-09-20T05:02:50.041Z,7.03
2018-09-20T05:05:18.458Z,7.20
2018-09-20T05:07:46.904Z,7.10
2018-09-20T05:10:15.501Z,7.90
2018-09-20T05:12:45.283Z,7.40
2018-09-20T05:15:13.718Z,7.30
2018-09-20T05:17:42.155Z,7.87
2018-09-20T05:20:10.838Z,7.57
2018-09-20T05:22:39.277Z,6.90
2018-09-20T05:25:07.707Z,7.97
2018-09-20T05:27:36.826Z,7.60
2018-09-20T05:30:05.950Z,7.33
2018-09-20T05:32:34.406Z,6.83
2018-09-20T05:35:02.897Z,7.63
2018-09-20T05:37:31.560Z,6.70
2018-09-20T05:40:00.057Z,7.10
2018-09-20T05:42:28.472Z,7.73
2018-09-20T05:44:56.882Z,7.27
2018-09-20T05:47:25.389Z,7.50
2018-09-20T05:49:53.834Z,8.00
2018-09-20T05:52:22.659Z,7.63
2018-09-20T05:54:51.363Z,7.00
2018-09-20T05:57:19.755Z,8.40
2018-09-20T05:59:48.118Z,7.77
2018-09-20T06:02:16.570Z,7.33
2018-09-20T06:04:45.043Z,7.80
2018-09-20T06:07:13.477Z,6.77
2018-09-20T06:09:41.898Z,7.50
2018-09-20T06:12:10.377Z,7.50
2018-09-20T06:14:38.763Z,8.03
2018-09-20T06:17:07.200Z,7.43
2018-09-20T06:19:35.634Z,6.70
2018-09-20T06:22:04.064Z,7.43
2018-09-20T06:24:32.510Z,7.10
2018-09-20T06:27:01.441Z,7.47
2018-09-20T06:29:29.859Z,7.60
2018-09-20T06:31:58.477Z,7.00
2018-09-20T06:34:26.897Z,7.27
2018-09-20T06:36:55.315Z,7.43
2018-09-20T06:39:23.908Z,7.10
2018-09-20T06:41:52.339Z,7.10
2018-09-20T06:44:20.761Z,6.70
2018-09-20T06:46:49.268Z,7.27
2018-09-20T06:49:17.683Z,7.63
2018-09-20T06:51:46.146Z,7.17
2018-09-20T06:54:14.629Z,6.57
2018-09-20T06:56:43.147Z,6.37
2018-09-20T06:59:11.606Z,6.67
2018-09-20T07:01:40.028Z,6.77
2018-09-20T07:04:08.504Z,7.00
2018-09-20T07:06:36.983Z,7.30
2018-09-20T07:09:09.683Z,7.30
2018-09-20T07:11:38.196Z,7.33
2018-09-20T07:14:06.643Z,7.07
2018-09-20T07:16:35.060Z,7.40
2018-09-20T07:19:03.860Z,7.17
2018-09-20T07:21:32.435Z,6.93
2018-09-20T07:24:01.185Z,7.40
2018-09-20T07:26:29.643Z,7.47
2018-09-20T07:28:58.576Z,6.92
2018-09-20T07:31:27.099Z,7.20
2018-09-20T07:33:55.488Z,7.70
2018-09-20T07:36:24.041Z,7.57
2018-09-20T07:38:52.491Z,7.03
2018-09-20T07:41:20.898Z,6.83
2018-09-20T07:43:49.301Z,7.23
2018-09-20T07:46:17.683Z,6.53
2018-09-20T07:48:46.117Z,6.83
2018-09-20T07:51:14.549Z,5.87
2018-09-20T07:53:43.030Z,6.67
2018-09-20T07:56:11.488Z,6.60
2018-09-20T07:58:39.960Z,6.57
2018-09-20T08:01:08.478Z,6.13
2018-09-20T08:03:36.899Z,5.83
2018-09-20T08:06:05.335Z,6.30
2018-09-20T08:08:40.472Z,5.83
2018-09-20T08:11:08.885Z,5.50
2018-09-20T08:13:37.393Z,6.17
2018-09-20T08:16:06.020Z,5.73
2018-09-20T08:18:34.512Z,5.70
2018-09-20T08:21:02.974Z,5.83
2018-09-20T08:23:31.433Z,6.17
2018-09-20T08:26:00.013Z,5.63
2018-09-20T08:28:35.105Z,5.90
2018-09-20T08:31:03.585Z,5.60
2018-09-20T08:33:32.048Z,6.00
2018-09-20T08:36:00.538Z,6.30
2018-09-20T08:38:28.955Z,5.70
2018-09-20T08:40:57.417Z,5.43
2018-09-20T08:43:25.874Z,5.30
2018-09-20T08:45:54.302Z,5.20
2018-09-20T08:48:22.723Z,5.43
2018-09-20T08:50:51.195Z,5.00
2018-09-20T08:53:19.620Z,4.97
2018-09-20T08:55:48.033Z,5.03
2018-09-20T08:58:16.472Z,4.90
2018-09-20T09:00:44.841Z,4.73
2018-09-20T09:03:13.297Z,4.97
2018-09-20T09:05:41.801Z,4.30
2018-09-20T09:08:10.182Z,4.63
2018-09-20T09:10:39.414Z,4.50
2018-09-20T09:13:07.803Z,4.60
2018-09-20T09:15:36.181Z,3.70
2018-09-20T09:18:04.613Z,4.47
2018-09-20T09:20:33.001Z,4.20
2018-09-20T09:23:01.397Z,4.20
2018-09-20T09:25:29.827Z,4.60
2018-09-20T09:27:58.254Z,4.90
2018-09-20T09:30:26.697Z,4.27
2018-09-20T09:32:55.123Z,4.60
2018-09-20T09:35:23.529Z,4.20
2018-09-20T09:37:51.939Z,4.43
2018-09-20T09:40:20.359Z,4.80
2018-09-20T09:42:48.742Z,4.63
2018-09-20T09:45:17.145Z,4.97
2018-09-20T09:47:45.571Z,4.70
2018-09-20T09:50:14.049Z,4.60
2018-09-20T09:52:42.906Z,4.87
2018-09-20T09:55:11.330Z,4.47
2018-09-20T09:57:39.719Z,4.90
2018-09-20T10:00:08.189Z,5.20
2018-09-20T10:02:36.667Z,4.37
2018-09-20T10:05:05.078Z,4.73
2018-09-20T10:07:33.477Z,4.70
2018-09-20T10:10:01.923Z,4.90
2018-09-20T10:12:30.295Z,3.60
2018-09-20T10:14:58.730Z,4.03
2018-09-20T10:17:27.184Z,4.03
2018-09-20T10:19:55.686Z,4.10
2018-09-20T10:22:24.096Z,3.73
2018-09-20T10:24:52.477Z,4.20
2018-09-20T10:27:20.901Z,4.60
2018-09-20T10:29:49.329Z,3.73
2018-09-20T10:32:18.209Z,3.63
2018-09-20T10:34:46.627Z,3.97
2018-09-20T10:37:15.066Z,4.13
2018-09-20T10:39:43.519Z,3.80
2018-09-20T10:42:12.006Z,3.93
2018-09-20T10:44:40.430Z,3.87
2018-09-20T10:47:08.847Z,3.87
2018-09-20T10:49:37.256Z,3.60
2018-09-20T10:52:06.422Z,3.70
2018-09-20T10:54:34.843Z,3.70
2018-09-20T10:57:03.236Z,4.40
2018-09-20T10:59:31.649Z,3.70
2018-09-20T11:02:00.048Z,3.60
2018-09-20T11:04:28.484Z,3.37
2018-09-20T11:06:56.970Z,3.47
2018-09-20T11:09:25.430Z,3.80
2018-09-20T11:11:54.037Z,3.57
2018-09-20T11:14:22.459Z,3.70
2018-09-20T11:16:50.848Z,3.50
2018-09-20T11:19:19.270Z,3.30
2018-09-20T11:21:47.734Z,3.57
2018-09-20T11:24:16.221Z,3.63
2018-09-20T11:26:44.659Z,3.07
2018-09-20T11:29:13.069Z,3.03
2018-09-20T11:31:41.461Z,3.13
2018-09-20T11:34:10.199Z,3.40
2018-09-20T11:36:38.649Z,2.90
2018-09-20T11:39:09.239Z,2.80
2018-09-20T11:41:37.653Z,3.50
2018-09-20T11:44:06.123Z,3.50
2018-09-20T11:46:34.606Z,3.30
2018-09-20T11:49:02.988Z,3.33
2018-09-20T11:51:31.452Z,3.13
2018-09-20T11:53:59.979Z,3.33
2018-09-20T11:56:28.398Z,3.30
2018-09-20T11:58:57.472Z,3.20
2018-09-20T12:01:25.892Z,3.20
2018-09-20T12:03:54.396Z,3.23
2018-09-20T12:06:22.903Z,2.93
2018-09-20T12:08:51.360Z,3.23
2018-09-20T12:11:19.775Z,3.17
2018-09-20T12:13:48.223Z,3.50
2018-09-20T12:16:16.650Z,3.00
2018-09-20T12:18:45.107Z,2.77
2018-09-20T12:21:14.467Z,3.33
2018-09-20T12:23:42.890Z,3.17
2018-09-20T12:26:11.298Z,3.60
2018-09-20T12:28:39.736Z,3.17
2018-09-20T12:31:08.221Z,2.97
2018-09-20T12:33:36.660Z,3.30
2018-09-20T12:36:05.145Z,3.13
2018-09-20T12:38:33.619Z,3.50
2018-09-20T12:41:02.085Z,3.47
2018-09-20T12:43:30.476Z,3.07
2018-09-20T12:45:58.897Z,3.30
2018-09-20T12:48:27.350Z,3.10
2018-09-20T12:50:55.759Z,3.17
2018-09-20T12:53:24.855Z,3.33
2018-09-20T12:55:53.265Z,2.90
2018-09-20T12:58:25.965Z,2.97
2018-09-20T13:00:54.398Z,2.87
2018-09-20T13:03:22.874Z,2.87
2018-09-20T13:05:51.279Z,3.10
2018-09-20T13:08:19.987Z,3.13
2018-09-20T13:10:48.395Z,3.20
2018-09-20T13:13:16.827Z,2.40
2018-09-20T13:15:45.327Z,2.77
2018-09-20T13:18:13.743Z,3.27
2018-09-20T13:20:42.161Z,2.80
2018-09-20T13:23:11.118Z,3.03
2018-09-20T13:25:39.607Z,3.43
2018-09-20T13:28:08.484Z,2.80
2018-09-20T13:30:36.922Z,2.77
2018-09-20T13:33:05.418Z,3.60
2018-09-20T13:35:33.860Z,3.23
2018-09-20T13:38:02.379Z,3.03
2018-09-20T13:40:30.914Z,2.63
2018-09-20T13:42:59.442Z,3.20
2018-09-20T13:45:27.851Z,3.17
2018-09-20T13:47:56.329Z,3.07
2018-09-20T13:50:24.775Z,2.53
2018-09-20T13:52:53.172Z,3.47
2018-09-20T13:55:21.586Z,3.20
2018-09-20T13:57:49.977Z,3.13
2018-09-20T14:00:18.382Z,2.80
2018-09-20T14:02:46.829Z,2.70
2018-09-20T14:05:15.282Z,3.50
2018-09-20T14:07:43.696Z,2.90
2018-09-20T14:10:12.120Z,3.07
2018-09-20T14:12:40.497Z,3.20
2018-09-20T14:15:08.946Z,3.03
2018-09-20T14:17:37.745Z,2.87
2018-09-20T14:20:06.186Z,2.70
2018-09-20T14:22:34.610Z,2.67
2018-09-20T14:25:03.110Z,3.20
2018-09-20T14:27:31.494Z,2.60
2018-09-20T14:29:59.915Z,3.20
2018-09-20T14:32:28.396Z,2.80
2018-09-20T14:34:56.880Z,2.70
2018-09-20T14:37:25.302Z,2.70
2018-09-20T14:39:53.877Z,4.07
2018-09-20T14:42:22.275Z,3.17
2018-09-20T14:44:50.695Z,3.23
2018-09-20T14:47:19.105Z,2.87
2018-09-20T14:49:47.515Z,2.93
2018-09-20T14:52:16.112Z,2.87
2018-09-20T14:54:44.525Z,2.80
2018-09-20T14:57:12.933Z,3.13
2018-09-20T14:59:41.341Z,3.83
2018-09-20T15:02:09.832Z,4.90
2018-09-20T15:04:38.329Z,4.63
2018-09-20T15:07:06.851Z,4.90
2018-09-20T15:09:35.272Z,6.37
2018-09-20T15:12:03.713Z,5.60
2018-09-20T15:14:32.281Z,5.63
2018-09-20T15:17:00.693Z,5.60
2018-09-20T15:19:29.095Z,5.63
2018-09-20T15:21:57.512Z,5.03
2018-09-20T15:24:25.987Z,4.60
2018-09-20T15:26:54.540Z,5.63
2018-09-20T15:29:22.935Z,5.23
2018-09-20T15:31:51.367Z,5.60
2018-09-20T15:34:19.806Z,5.43
2018-09-20T15:36:48.267Z,5.13
2018-09-20T15:39:16.718Z,4.40
2018-09-20T15:41:45.130Z,3.40
2018-09-20T15:44:13.506Z,3.90
2018-09-20T15:46:42.056Z,4.83
2018-09-20T15:49:10.461Z,5.20
2018-09-20T15:51:38.872Z,5.57
2018-09-20T15:54:07.322Z,5.70
2018-09-20T15:56:35.760Z,6.00
2018-09-20T15:59:04.295Z,6.73
2018-09-20T16:01:32.710Z,5.47
2018-09-20T16:04:01.133Z,4.90
2018-09-20T16:06:30.149Z,4.07
2018-09-20T16:08:58.579Z,4.23
2018-09-20T16:11:26.987Z,3.87
2018-09-20T16:13:55.375Z,3.90
2018-09-20T16:16:24.610Z,3.77
2018-09-20T16:18:52.998Z,4.03
2018-09-20T16:21:21.388Z,4.97
2018-09-20T16:23:49.901Z,4.50
2018-09-20T16:26:18.315Z,4.43
2018-09-20T16:29:12.475Z,4.40
2018-09-20T16:36:18.139Z,3.97
2018-09-20T16:39:22.751Z,3.33
2018-09-20T16:41:53.702Z,3.40
2018-09-20T16:44:55.125Z,3.70
2018-09-20T16:47:23.520Z,3.47
2018-09-20T16:49:52.037Z,2.90
2018-09-20T16:52:20.443Z,2.93
2018-09-20T16:54:48.829Z,3.17
2018-09-20T16:57:17.240Z,2.97
2018-09-20T16:59:45.670Z,2.87
2018-09-20T17:02:14.085Z,2.83
2018-09-20T17:04:42.533Z,3.17
2018-09-20T17:07:11.040Z,3.17
2018-09-20T17:09:39.328Z,2.73
2018-09-20T17:12:07.809Z,4.40
2018-09-20T17:14:36.303Z,3.00
2018-09-20T17:17:04.808Z,2.83
2018-09-20T17:19:33.439Z,2.87
2018-09-20T17:22:01.913Z,2.87
2018-09-20T17:24:30.318Z,3.03
2018-09-20T17:26:58.729Z,2.73
2018-09-20T17:29:27.174Z,2.80
2018-09-20T17:31:55.563Z,3.17
2018-09-20T17:34:24.316Z,2.67
2018-09-20T17:36:53.473Z,2.60
2018-09-20T17:39:22.445Z,2.87
2018-09-20T17:41:52.544Z,3.27
2018-09-20T17:44:21.037Z,2.93
2018-09-20T17:46:49.595Z,3.40
2018-09-20T17:49:18.052Z,2.90
2018-09-20T17:51:46.837Z,2.57
2018-09-20T17:54:15.540Z,2.63
2018-09-20T17:56:44.917Z,2.57
2018-09-20T17:59:14.165Z,3.13
2018-09-20T18:01:42.569Z,3.27
2018-09-20T18:04:11.051Z,2.87
2018-09-20T18:06:39.494Z,2.87
2018-09-20T18:09:09.183Z,3.00
2018-09-20T18:11:37.585Z,3.03
2018-09-20T18:14:06.889Z,3.23
2018-09-20T18:16:35.324Z,3.00
2018-09-20T18:19:03.748Z,3.17
2018-09-20T18:21:32.246Z,2.73
2018-09-20T18:24:00.739Z,2.90
2018-09-20T18:26:29.249Z,3.00
2018-09-20T18:28:57.731Z,3.17
2018-09-20T18:31:26.265Z,3.40
2018-09-20T18:33:54.703Z,3.30
2018-09-20T18:36:23.233Z,3.10
2018-09-20T18:38:51.639Z,3.17
2018-09-20T18:41:20.146Z,2.97
2018-09-20T18:43:48.756Z,3.33
2018-09-20T18:46:17.184Z,3.50
2018-09-20T18:48:45.653Z,3.50
2018-09-20T18:51:14.197Z,3.27
2018-09-20T18:53:42.684Z,3.10
2018-09-20T18:56:11.105Z,3.30
2018-09-20T18:58:39.539Z,3.10
2018-09-20T19:01:07.988Z,3.20
2018-09-20T19:03:36.373Z,3.60
2018-09-20T19:06:04.920Z,3.47
2018-09-20T19:08:33.331Z,3.70
2018-09-20T19:11:01.795Z,3.30
2018-09-20T19:13:30.279Z,3.30
2018-09-20T19:15:58.765Z,3.73
2018-09-20T19:18:27.276Z,3.23
2018-09-20T19:20:55.707Z,3.70
2018-09-20T19:23:24.219Z,3.30
2018-09-20T19:25:52.687Z,3.60
2018-09-20T19:28:21.084Z,3.60
2018-09-20T19:30:49.535Z,3.70
2018-09-20T19:33:18.183Z,3.20
2018-09-20T19:35:46.733Z,3.70
2018-09-20T19:38:15.155Z,3.67
2018-09-20T19:40:47.522Z,3.73
2018-09-20T19:43:16.500Z,3.27
2018-09-20T19:45:44.901Z,3.90
2018-09-20T19:48:13.335Z,3.70
2018-09-20T19:50:42.202Z,3.13
2018-09-20T19:53:11.573Z,3.83
2018-09-20T19:55:39.976Z,3.50
2018-09-20T19:58:08.382Z,3.67
2018-09-20T20:00:36.826Z,3.50
2018-09-20T20:03:05.239Z,3.63
2018-09-20T20:05:33.659Z,3.70
2018-09-20T20:08:02.886Z,3.43
2018-09-20T20:10:31.444Z,3.60
2018-09-20T20:13:00.885Z,3.57
2018-09-20T20:15:33.730Z,3.43
2018-09-20T20:18:04.003Z,3.73
2018-09-20T20:20:32.613Z,3.50
2018-09-20T20:23:01.080Z,3.43
2018-09-20T20:25:29.575Z,3.80
2018-09-20T20:27:57.988Z,3.70
2018-09-20T20:30:26.592Z,3.90
2018-09-20T20:32:54.980Z,3.63
2018-09-20T20:35:23.522Z,3.30
2018-09-20T20:37:52.020Z,3.87
2018-09-20T20:40:20.562Z,3.83
2018-09-20T20:42:49.089Z,3.63
2018-09-20T20:45:17.606Z,3.93
2018-09-20T20:47:46.064Z,3.63
2018-09-20T20:50:15.045Z,3.80
2018-09-20T20:52:43.542Z,3.60
2018-09-20T20:55:12.103Z,3.63
2018-09-20T20:57:40.571Z,3.77
2018-09-20T21:00:09.002Z,3.63
2018-09-20T21:02:37.455Z,3.77
2018-09-20T21:05:06.663Z,4.10
2018-09-20T21:07:35.081Z,3.90
2018-09-20T21:10:03.717Z,3.80
2018-09-20T21:12:32.219Z,3.77
2018-09-20T21:15:00.691Z,3.70
2018-09-20T21:17:29.084Z,3.80
2018-09-20T21:19:57.544Z,3.77
2018-09-20T21:22:25.985Z,3.73
2018-09-20T21:24:54.382Z,3.80
2018-09-20T21:27:22.896Z,3.67
2018-09-20T21:29:51.286Z,3.63
2018-09-20T21:32:19.687Z,3.53
2018-09-20T21:34:48.114Z,3.67
2018-09-20T21:37:16.541Z,3.80
2018-09-20T21:39:45.013Z,3.57
2018-09-20T21:42:13.469Z,3.43
2018-09-20T21:44:41.890Z,3.50
2018-09-20T21:47:10.339Z,3.67
2018-09-20T21:49:38.724Z,3.37
2018-09-20T21:52:07.286Z,3.70
2018-09-20T21:54:35.706Z,3.80
2018-09-20T21:57:04.184Z,3.60
2018-09-20T21:59:32.559Z,4.07
2018-09-20T22:02:01.785Z,3.52
2018-09-20T22:04:30.424Z,4.00
2018-09-20T22:06:59.471Z,3.77
2018-09-20T22:09:28.155Z,3.70
2018-09-20T22:11:56.586Z,3.70
2018-09-20T22:14:25.005Z,3.47
2018-09-20T22:16:53.433Z,3.60
2018-09-20T22:19:21.870Z,3.80
2018-09-20T22:21:50.550Z,4.00
2018-09-20T22:24:18.953Z,3.60
2018-09-20T22:26:47.455Z,3.80
2018-09-20T22:29:16.378Z,3.80
2018-09-20T22:31:44.807Z,3.73
2018-09-20T22:34:13.229Z,3.80
2018-09-20T22:36:41.643Z,3.77
2018-09-20T22:39:11.069Z,4.00
2018-09-20T22:41:39.474Z,3.93
2018-09-20T22:44:08.714Z,3.77
2018-09-20T22:46:37.122Z,3.80
2018-09-20T22:49:05.564Z,3.90
2018-09-20T22:51:34.595Z,3.53
2018-09-20T22:54:03.059Z,4.13
2018-09-20T22:56:31.555Z,4.03
2018-09-20T22:58:59.979Z,4.20
2018-09-20T23:01:28.393Z,4.47
2018-09-20T23:03:56.799Z,4.37
2018-09-20T23:06:25.200Z,4.10
2018-09-20T23:08:53.775Z,3.73
2018-09-20T23:11:22.282Z,4.10
2018-09-20T23:13:50.679Z,3.93
2018-09-20T23:16:19.150Z,4.33
2018-09-20T23:18:47.742Z,4.03
2018-09-20T23:21:16.168Z,4.10
2018-09-20T23:23:44.612Z,4.30
2018-09-20T23:26:13.059Z,4.17
2018-09-20T23:28:41.465Z,4.07
2018-09-20T23:31:09.908Z,4.13
2018-09-20T23:33:38.319Z,4.70
2018-09-20T23:36:06.774Z,4.20
2018-09-20T23:38:35.201Z,4.10
2018-09-20T23:41:03.659Z,4.73
2018-09-20T23:43:32.159Z,4.17
2018-09-20T23:46:00.608Z,4.27
2018-09-20T23:48:29.051Z,3.93
2018-09-20T23:50:57.541Z,4.10
2018-09-20T23:53:25.959Z,4.57
2018-09-20T23:55:54.439Z,4.73
2018-09-20T23:58:22.817Z,3.77
